createdAt,value
2019-04-14T00:01:13.331Z,71.70
2019-04-14T00:03:48.366Z,71.50
2019-04-14T00:06:20.213Z,71.70
2019-04-14T00:08:50.450Z,71.80
2019-04-14T00:11:21.240Z,72.20
2019-04-14T00:13:52.416Z,71.80
2019-04-14T00:16:23.061Z,71.80
2019-04-14T00:18:53.370Z,71.70
2019-04-14T00:21:23.705Z,71.70
2019-04-14T00:23:54.459Z,71.60
2019-04-14T00:26:31.364Z,71.90
2019-04-14T00:29:02.638Z,71.70
2019-04-14T00:31:33.091Z,71.70
2019-04-14T00:34:05.147Z,71.70
2019-04-14T00:36:46.098Z,71.90
2019-04-14T00:39:20.482Z,72.00
2019-04-14T00:42:03.306Z,72.10
2019-04-14T00:44:41.103Z,72.10
2019-04-14T00:47:13.556Z,72.50
2019-04-14T00:49:44.070Z,72.10
2019-04-14T00:52:14.526Z,72.40
2019-04-14T00:54:45.665Z,72.50
2019-04-14T00:57:17.981Z,72.50
2019-04-14T00:59:48.711Z,72.10
2019-04-14T01:02:19.066Z,72.50
2019-04-14T01:04:49.185Z,72.70
2019-04-14T01:07:19.612Z,72.30
2019-04-14T01:09:51.277Z,72.40
2019-04-14T01:12:21.425Z,72.40
2019-04-14T01:14:51.827Z,72.50
2019-04-14T01:17:22.240Z,72.80
2019-04-14T01:19:52.784Z,72.60
2019-04-14T01:22:23.091Z,72.50
2019-04-14T01:24:53.277Z,72.60
2019-04-14T01:27:23.635Z,72.60
2019-04-14T01:29:53.856Z,72.60
2019-04-14T01:32:24.163Z,72.50
2019-04-14T01:34:55.461Z,72.60
2019-04-14T01:37:26.806Z,72.60
2019-04-14T01:39:57.201Z,72.60
2019-04-14T01:42:31.018Z,72.60
2019-04-14T01:45:01.399Z,72.50
2019-04-14T01:47:31.860Z,72.60
2019-04-14T01:50:02.095Z,72.70
2019-04-14T01:52:50.138Z,72.70
2019-04-14T01:55:28.774Z,72.60
2019-04-14T01:58:16.408Z,72.80
2019-04-14T02:00:49.295Z,72.90
2019-04-14T02:03:19.577Z,72.90
2019-04-14T02:05:49.799Z,72.90
2019-04-14T02:08:21.988Z,73.00
2019-04-14T02:10:52.291Z,73.10
2019-04-14T02:13:23.030Z,73.10
2019-04-14T02:15:53.143Z,73.20
2019-04-14T02:18:23.467Z,73.10
2019-04-14T02:20:53.619Z,73.20
2019-04-14T02:23:24.014Z,73.40
2019-04-14T02:25:54.236Z,73.30
2019-04-14T02:28:26.364Z,73.40
2019-04-14T02:31:10.343Z,73.30
2019-04-14T02:33:50.529Z,73.60
2019-04-14T02:39:15.610Z,73.30
2019-04-14T02:41:43.711Z,73.40
2019-04-14T02:44:09.498Z,73.40
2019-04-14T02:46:39.808Z,73.50
2019-04-14T02:51:33.708Z,73.50
2019-04-14T02:54:11.828Z,73.70
2019-04-14T03:04:19.417Z,73.60
2019-04-14T03:06:50.455Z,73.80
2019-04-14T03:09:30.114Z,73.80
2019-04-14T03:14:21.424Z,73.80
2019-04-14T03:19:59.386Z,73.70
2019-04-14T03:22:30.374Z,73.90
2019-04-14T03:24:42.152Z,73.90
2019-04-14T03:27:45.841Z,74.00
2019-04-14T03:30:38.974Z,74.00
2019-04-14T03:40:21.829Z,74.10
2019-04-14T03:43:03.148Z,74.20
2019-04-14T03:45:32.438Z,74.50
2019-04-14T03:48:31.572Z,74.50
2019-04-14T03:53:22.184Z,74.30
2019-04-14T03:55:16.023Z,74.50
2019-04-14T03:57:36.615Z,74.60
2019-04-14T04:00:07.664Z,74.70
2019-04-14T04:02:38.029Z,74.70
2019-04-14T04:05:08.539Z,74.80
2019-04-14T04:07:38.865Z,74.90
2019-04-14T04:10:11.344Z,74.80
2019-04-14T04:12:42.253Z,74.90
2019-04-14T04:15:12.625Z,75.00
2019-04-14T04:17:45.167Z,74.90
2019-04-14T04:20:34.891Z,74.80
2019-04-14T04:23:07.383Z,74.80
2019-04-14T04:25:39.987Z,74.90
2019-04-14T04:28:30.587Z,75.00
2019-04-14T04:31:08.891Z,74.80
2019-04-14T04:33:41.456Z,75.10
2019-04-14T04:36:13.930Z,74.90
2019-04-14T04:38:46.339Z,75.10
2019-04-14T04:41:16.841Z,75.10
2019-04-14T04:43:47.348Z,74.80
2019-04-14T04:46:17.731Z,75.60
2019-04-14T04:49:00.060Z,74.90
2019-04-14T04:51:20.260Z,75.00
2019-04-14T04:53:50.729Z,75.00
2019-04-14T04:56:20.852Z,75.10
2019-04-14T04:58:52.128Z,74.90
2019-04-14T05:01:23.176Z,74.90
2019-04-14T05:03:53.622Z,75.10
2019-04-14T05:06:50.916Z,75.10
2019-04-14T05:09:29.334Z,75.00
2019-04-14T05:12:17.890Z,75.00
2019-04-14T05:15:00.997Z,75.10
2019-04-14T05:17:43.028Z,75.00
2019-04-14T05:20:13.790Z,75.20
2019-04-14T05:22:44.158Z,75.10
2019-04-14T05:25:14.605Z,75.10
2019-04-14T05:27:45.198Z,75.30
2019-04-14T05:30:15.538Z,75.30
2019-04-14T05:32:45.598Z,75.20
2019-04-14T05:35:16.207Z,75.30
2019-04-14T05:37:46.614Z,75.10
2019-04-14T05:40:16.852Z,75.20
2019-04-14T05:42:47.339Z,76.00
2019-04-14T05:45:17.757Z,75.30
2019-04-14T05:47:48.018Z,75.50
2019-04-14T05:50:18.238Z,75.40
2019-04-14T05:52:49.271Z,75.40
2019-04-14T05:55:19.880Z,75.50
2019-04-14T05:57:50.334Z,75.60
2019-04-14T06:00:21.276Z,75.60
2019-04-14T06:02:52.638Z,75.60
2019-04-14T06:05:23.279Z,75.70
2019-04-14T06:07:55.454Z,75.50
2019-04-14T06:10:25.235Z,75.70
2019-04-14T06:12:55.556Z,75.60
2019-04-14T06:15:25.671Z,75.80
2019-04-14T06:17:55.793Z,76.00
2019-04-14T06:20:25.705Z,75.90
2019-04-14T06:22:55.929Z,75.90
2019-04-14T06:25:26.061Z,76.00
2019-04-14T06:27:56.165Z,75.90
2019-04-14T06:30:27.926Z,76.00
2019-04-14T06:32:59.684Z,76.00
2019-04-14T06:35:40.450Z,76.10
2019-04-14T06:38:12.102Z,76.00
2019-04-14T06:40:46.737Z,76.10
2019-04-14T06:43:16.851Z,76.20
2019-04-14T06:45:46.971Z,76.30
2019-04-14T06:48:17.089Z,76.40
2019-04-14T06:50:47.316Z,76.40
2019-04-14T06:53:17.431Z,76.40
2019-04-14T06:55:47.653Z,76.30
2019-04-14T06:58:17.767Z,76.50
2019-04-14T07:00:47.999Z,76.60
2019-04-14T07:03:18.109Z,76.50
2019-04-14T07:05:48.126Z,76.60
2019-04-14T07:08:18.351Z,76.60
2019-04-14T07:10:48.677Z,76.90
2019-04-14T07:13:19.654Z,77.10
2019-04-14T07:15:50.137Z,77.00
2019-04-14T07:18:20.258Z,77.10
2019-04-14T07:20:50.377Z,77.00
2019-04-14T07:23:20.599Z,77.00
2019-04-14T07:25:50.717Z,77.10
2019-04-14T07:28:21.041Z,77.20
2019-04-14T07:30:52.797Z,77.20
2019-04-14T07:33:36.743Z,77.30
2019-04-14T07:36:26.938Z,78.10
2019-04-14T07:39:01.524Z,77.40
2019-04-14T07:41:39.256Z,78.00
2019-04-14T07:44:11.217Z,78.00
2019-04-14T07:46:48.915Z,78.20
2019-04-14T07:49:37.058Z,77.90
2019-04-14T07:52:20.590Z,78.20
2019-04-14T07:54:52.348Z,78.50
2019-04-14T07:57:45.408Z,78.30
2019-04-14T08:00:20.439Z,78.00
2019-04-14T08:02:55.476Z,77.80
2019-04-14T08:05:30.099Z,78.10
2019-04-14T08:08:00.118Z,77.40
2019-04-14T08:10:30.233Z,77.50
2019-04-14T08:13:00.351Z,78.40
2019-04-14T08:15:30.643Z,77.80
2019-04-14T08:18:02.027Z,77.60
2019-04-14T08:20:32.152Z,77.60
2019-04-14T08:23:02.264Z,77.70
2019-04-14T08:25:32.381Z,77.40
2019-04-14T08:28:02.603Z,77.80
2019-04-14T08:30:32.829Z,77.70
2019-04-14T08:33:03.151Z,77.80
2019-04-14T08:35:33.099Z,77.30
2019-04-14T08:38:03.004Z,77.40
2019-04-14T08:40:33.060Z,77.40
2019-04-14T08:43:20.010Z,77.30
2019-04-14T08:46:08.468Z,77.70
2019-04-14T08:48:49.435Z,77.30
2019-04-14T08:51:24.469Z,77.30
2019-04-14T08:53:56.227Z,77.30
2019-04-14T08:56:43.287Z,77.50
2019-04-14T08:59:20.496Z,77.40
2019-04-14T09:02:10.619Z,77.60
2019-04-14T09:04:45.039Z,77.30
2019-04-14T09:07:16.793Z,77.80
2019-04-14T09:09:51.621Z,77.70
2019-04-14T09:12:25.849Z,77.80
2019-04-14T09:14:57.786Z,77.70
2019-04-14T09:17:30.071Z,77.90
2019-04-14T09:20:00.092Z,77.70
2019-04-14T09:22:30.307Z,77.90
2019-04-14T09:25:00.425Z,77.80
2019-04-14T09:27:30.547Z,77.90
2019-04-14T09:30:00.872Z,78.00
2019-04-14T09:32:31.707Z,78.20
2019-04-14T09:35:01.789Z,78.20
2019-04-14T09:37:31.810Z,77.90
2019-04-14T09:40:01.906Z,77.80
2019-04-14T09:42:31.909Z,77.80
2019-04-14T09:45:02.052Z,77.90
2019-04-14T09:47:32.067Z,77.90
2019-04-14T09:50:02.236Z,78.00
2019-04-14T09:52:32.465Z,78.00
2019-04-14T09:55:02.582Z,77.80
2019-04-14T09:57:32.694Z,77.90
2019-04-14T10:00:03.139Z,78.20
2019-04-14T10:02:33.341Z,78.40
2019-04-14T10:05:03.568Z,78.30
2019-04-14T10:07:33.890Z,78.30
2019-04-14T10:10:04.314Z,78.40
2019-04-14T10:12:34.438Z,78.60
2019-04-14T10:15:05.117Z,78.30
2019-04-14T10:17:35.185Z,78.30
2019-04-14T10:20:06.267Z,78.50
2019-04-14T10:22:36.346Z,78.50
2019-04-14T10:25:06.470Z,78.70
2019-04-14T10:27:36.685Z,78.60
2019-04-14T10:30:08.102Z,78.80
2019-04-14T10:32:38.355Z,78.80
2019-04-14T10:35:08.682Z,78.90
2019-04-14T10:37:39.005Z,78.90
2019-04-14T10:40:10.119Z,78.90
2019-04-14T10:42:40.470Z,79.20
2019-04-14T10:45:10.902Z,79.40
2019-04-14T10:47:41.041Z,79.80
2019-04-14T10:50:11.441Z,79.50
2019-04-14T10:52:41.562Z,79.50
2019-04-14T10:55:11.886Z,79.40
2019-04-14T10:57:42.111Z,79.60
2019-04-14T11:00:14.074Z,79.60
2019-04-14T11:02:44.293Z,79.70
2019-04-14T11:05:14.824Z,79.90
2019-04-14T11:07:44.943Z,80.00
2019-04-14T11:10:15.163Z,80.00
2019-04-14T11:12:45.280Z,80.20
2019-04-14T11:15:15.685Z,80.00
2019-04-14T11:17:45.777Z,80.20
2019-04-14T11:20:16.006Z,80.20
2019-04-14T11:22:46.066Z,80.10
2019-04-14T11:25:16.294Z,80.30
2019-04-14T11:27:46.510Z,80.40
2019-04-14T11:30:18.267Z,80.60
2019-04-14T11:32:49.959Z,80.30
2019-04-14T11:35:27.841Z,80.40
2019-04-14T11:38:17.808Z,80.60
2019-04-14T11:40:49.564Z,80.40
2019-04-14T11:43:19.684Z,80.00
2019-04-14T11:45:50.011Z,80.20
2019-04-14T11:48:20.127Z,80.20
2019-04-14T11:50:50.068Z,80.30
2019-04-14T11:53:20.266Z,80.30
2019-04-14T11:55:50.382Z,80.60
2019-04-14T11:58:20.502Z,80.40
2019-04-14T12:01:08.686Z,80.60
2019-04-14T12:03:46.528Z,80.50
2019-04-14T12:06:24.312Z,80.60
2019-04-14T12:09:03.682Z,80.50
2019-04-14T12:11:33.699Z,80.80
2019-04-14T12:14:03.816Z,80.00
2019-04-14T12:16:33.936Z,80.10
2019-04-14T12:19:04.262Z,80.30
2019-04-14T12:21:34.378Z,80.40
2019-04-14T12:24:04.917Z,80.50
2019-04-14T12:26:35.027Z,80.50
2019-04-14T12:29:08.012Z,80.60
2019-04-14T12:31:39.409Z,80.20
2019-04-14T12:34:09.790Z,80.60
2019-04-14T12:36:40.322Z,80.50
2019-04-14T12:39:19.496Z,80.80
2019-04-14T12:42:09.331Z,80.60
2019-04-14T12:44:47.130Z,80.70
2019-04-14T12:47:39.888Z,80.70
2019-04-14T12:50:14.591Z,80.50
2019-04-14T12:52:44.626Z,80.50
2019-04-14T12:55:14.844Z,80.40
2019-04-14T12:57:49.366Z,80.50
2019-04-14T13:00:21.297Z,80.50
2019-04-14T13:02:53.088Z,80.40
2019-04-14T13:05:23.220Z,80.80
2019-04-14T13:07:53.541Z,80.40
2019-04-14T13:10:23.663Z,80.50
2019-04-14T13:12:53.770Z,80.60
2019-04-14T13:15:23.895Z,80.50
2019-04-14T13:17:54.111Z,80.40
2019-04-14T13:20:24.656Z,80.30
2019-04-14T13:22:54.759Z,80.20
2019-04-14T13:25:24.790Z,80.10
2019-04-14T13:27:55.003Z,79.90
2019-04-14T13:30:26.758Z,80.20
2019-04-14T13:32:56.874Z,80.40
2019-04-14T13:35:26.993Z,79.80
2019-04-14T13:37:57.007Z,79.70
2019-04-14T13:40:27.440Z,79.70
2019-04-14T13:42:57.460Z,79.80
2019-04-14T13:45:27.576Z,79.80
2019-04-14T13:47:57.720Z,80.00
2019-04-14T13:50:27.798Z,79.70
2019-04-14T13:52:57.723Z,79.90
2019-04-14T13:55:28.258Z,79.70
2019-04-14T13:57:58.378Z,79.60
2019-04-14T14:00:28.903Z,79.50
2019-04-14T14:02:59.021Z,79.60
2019-04-14T14:05:29.343Z,79.60
2019-04-14T14:07:59.464Z,79.60
2019-04-14T14:10:30.520Z,79.60
2019-04-14T14:13:08.303Z,79.50
2019-04-14T14:15:40.062Z,79.30
2019-04-14T14:18:17.758Z,79.50
2019-04-14T14:20:52.284Z,79.10
2019-04-14T14:23:27.990Z,78.90
2019-04-14T14:26:18.119Z,78.90
2019-04-14T14:28:48.581Z,78.70
2019-04-14T14:31:20.104Z,78.90
2019-04-14T14:33:50.425Z,78.90
2019-04-14T14:36:20.561Z,79.00
2019-04-14T14:38:50.767Z,78.60
2019-04-14T14:41:21.090Z,78.80
2019-04-14T14:43:51.209Z,78.30
2019-04-14T14:46:22.964Z,78.00
2019-04-14T14:48:54.926Z,78.20
2019-04-14T14:51:29.348Z,78.30
2019-04-14T14:53:59.673Z,78.50
2019-04-14T14:56:29.790Z,78.30
2019-04-14T14:58:59.982Z,78.40
2019-04-14T15:01:30.235Z,78.30
2019-04-14T15:04:00.256Z,78.10
2019-04-14T15:06:30.473Z,78.40
2019-04-14T15:09:00.833Z,78.10
2019-04-14T15:11:31.017Z,78.00
2019-04-14T15:14:01.139Z,78.00
2019-04-14T15:16:31.462Z,78.10
2019-04-14T15:19:04.856Z,78.30
2019-04-14T15:21:34.985Z,78.30
2019-04-14T15:24:05.097Z,78.20
2019-04-14T15:26:35.319Z,78.30
2019-04-14T15:29:05.437Z,78.00
2019-04-14T15:31:35.556Z,77.90
2019-04-14T15:34:05.880Z,77.90
2019-04-14T15:36:36.047Z,77.60
2019-04-14T15:39:08.202Z,77.40
2019-04-14T15:41:38.592Z,77.30
2019-04-14T15:44:08.818Z,77.30
2019-04-14T15:46:38.940Z,77.00
2019-04-14T15:49:09.060Z,77.50
2019-04-14T15:51:39.379Z,77.30
2019-04-14T15:54:09.597Z,77.20
2019-04-14T15:56:59.725Z,77.00
2019-04-14T15:59:40.457Z,77.10
2019-04-14T16:02:15.184Z,76.90
2019-04-14T16:04:46.948Z,76.90
2019-04-14T16:07:18.906Z,77.00
2019-04-14T16:09:50.662Z,76.40
2019-04-14T16:12:28.563Z,76.50
2019-04-14T16:15:06.565Z,76.60
2019-04-14T16:17:38.534Z,76.60
2019-04-14T16:20:12.958Z,76.20
2019-04-14T16:22:43.275Z,76.50
2019-04-14T16:25:13.596Z,75.90
2019-04-14T16:27:51.505Z,76.50
2019-04-14T16:30:39.749Z,76.40
2019-04-14T16:33:11.731Z,75.70
2019-04-14T16:35:42.466Z,75.50
2019-04-14T16:38:12.662Z,75.40
2019-04-14T16:40:42.727Z,75.20
2019-04-14T16:43:12.846Z,74.60
2019-04-14T16:45:43.124Z,75.00
2019-04-14T16:48:14.265Z,74.60
2019-04-14T16:50:45.000Z,75.60
2019-04-14T16:53:16.860Z,75.40
2019-04-14T16:56:01.119Z,75.30
2019-04-14T16:58:45.062Z,75.30
2019-04-14T17:01:16.910Z,75.10
2019-04-14T17:03:47.157Z,75.00
2019-04-14T17:06:17.468Z,74.90
2019-04-14T17:08:47.694Z,75.10
2019-04-14T17:11:18.106Z,74.90
2019-04-14T17:13:49.973Z,75.00
2019-04-14T17:16:30.837Z,74.90
2019-04-14T17:19:14.986Z,74.90
2019-04-14T17:21:46.956Z,75.00
2019-04-14T17:24:33.864Z,75.30
2019-04-14T17:27:05.837Z,75.40
2019-04-14T17:29:37.784Z,75.00
2019-04-14T17:32:12.513Z,74.60
2019-04-14T17:34:53.486Z,75.10
2019-04-14T17:37:41.833Z,74.60
2019-04-14T17:40:16.704Z,74.80
2019-04-14T17:42:51.389Z,74.70
2019-04-14T17:45:23.364Z,74.90
2019-04-14T17:48:04.333Z,74.80
2019-04-14T17:50:40.944Z,74.90
2019-04-14T17:53:15.116Z,74.60
2019-04-14T17:56:03.152Z,75.00
2019-04-14T17:58:44.130Z,75.00
2019-04-14T18:01:22.231Z,75.40
2019-04-14T18:03:55.879Z,75.80
2019-04-14T18:06:27.795Z,75.90
2019-04-14T18:09:11.634Z,75.80
2019-04-14T18:11:55.580Z,75.90
2019-04-14T18:14:29.791Z,76.00
2019-04-14T18:17:17.626Z,76.10
2019-04-14T18:19:49.392Z,75.80
2019-04-14T18:22:19.411Z,76.30
2019-04-14T18:24:49.627Z,76.30
2019-04-14T18:27:19.847Z,76.30
2019-04-14T18:30:03.587Z,75.80
2019-04-14T18:32:44.248Z,76.10
2019-04-14T18:35:16.010Z,76.00
2019-04-14T18:38:04.355Z,75.80
2019-04-14T18:40:45.124Z,76.20
2019-04-14T18:43:20.609Z,76.40
2019-04-14T18:45:52.331Z,76.70
2019-04-14T18:48:26.788Z,76.60
2019-04-14T18:51:13.862Z,76.40
2019-04-14T18:53:48.140Z,76.40
2019-04-14T18:56:36.220Z,76.10
2019-04-14T18:59:08.031Z,76.20
2019-04-14T19:01:39.940Z,76.10
2019-04-14T19:04:10.160Z,75.80
2019-04-14T19:06:40.620Z,76.20
2019-04-14T19:09:10.813Z,75.90
2019-04-14T19:11:51.342Z,75.90
2019-04-14T19:14:23.132Z,75.60
2019-04-14T19:16:54.837Z,76.00
2019-04-14T19:19:25.007Z,75.70
2019-04-14T19:21:55.128Z,75.50
2019-04-14T19:24:25.451Z,75.20
2019-04-14T19:26:55.570Z,75.30
2019-04-14T19:29:27.746Z,75.40
2019-04-14T19:31:57.446Z,75.50
2019-04-14T19:34:27.573Z,75.80
2019-04-14T19:36:58.609Z,75.50
2019-04-14T19:39:28.726Z,75.40
2019-04-14T19:41:58.854Z,74.80
2019-04-14T19:44:29.066Z,75.30
2019-04-14T19:46:59.098Z,75.20
2019-04-14T19:49:29.204Z,75.70
2019-04-14T19:52:02.400Z,74.90
2019-04-14T19:54:33.666Z,75.40
2019-04-14T19:57:05.507Z,75.20
2019-04-14T19:59:35.831Z,74.80
2019-04-14T20:02:06.082Z,74.40
2019-04-14T20:04:37.353Z,75.00
2019-04-14T20:07:07.514Z,74.40
2019-04-14T20:09:37.633Z,74.90
2019-04-14T20:12:07.964Z,74.40
2019-04-14T20:14:38.078Z,75.80
2019-04-14T20:17:15.772Z,74.80
2019-04-14T20:19:47.530Z,75.40
2019-04-14T20:22:25.432Z,74.70
2019-04-14T20:24:57.189Z,75.20
2019-04-14T20:27:29.049Z,75.10
2019-04-14T20:30:10.023Z,75.10
2019-04-14T20:32:41.792Z,75.20
2019-04-14T20:35:11.900Z,75.50
2019-04-14T20:37:42.120Z,76.00
2019-04-14T20:40:12.367Z,74.70
2019-04-14T20:42:42.464Z,75.90
2019-04-14T20:45:13.757Z,74.70
2019-04-14T20:47:43.827Z,75.10
2019-04-14T20:50:14.562Z,74.80
2019-04-14T20:52:44.887Z,75.20
2019-04-14T20:55:15.106Z,75.40
2019-04-14T20:57:47.898Z,74.90
2019-04-14T21:00:20.752Z,75.10
2019-04-14T21:03:04.204Z,75.10
2019-04-14T21:05:38.851Z,75.00
2019-04-14T21:08:25.807Z,75.10
2019-04-14T21:10:57.707Z,75.00
2019-04-14T21:13:45.946Z,75.00
2019-04-14T21:16:29.999Z,75.00
2019-04-14T21:19:01.757Z,75.00
2019-04-14T21:21:46.002Z,74.90
2019-04-14T21:24:34.151Z,74.70
2019-04-14T21:27:22.181Z,75.00
2019-04-14T21:30:12.576Z,74.50
2019-04-14T21:33:01.137Z,74.60
2019-04-14T21:35:39.135Z,74.60
2019-04-14T21:38:20.309Z,75.00
2019-04-14T21:40:58.211Z,75.00
2019-04-14T21:43:28.543Z,74.60
2019-04-14T21:45:58.860Z,74.70
2019-04-14T21:48:29.184Z,74.40
2019-04-14T21:50:59.303Z,74.20
2019-04-14T21:53:29.423Z,74.60
2019-04-14T21:56:12.483Z,74.80
2019-04-14T21:58:33.114Z,74.30
2019-04-14T22:01:36.848Z,74.30
2019-04-14T22:04:08.810Z,74.60
2019-04-14T22:06:40.577Z,74.50
2019-04-14T22:09:24.720Z,74.50
2019-04-14T22:11:54.869Z,74.50
2019-04-14T22:14:25.059Z,74.90
2019-04-14T22:16:55.388Z,74.80
2019-04-14T22:19:26.042Z,74.70
2019-04-14T22:21:56.260Z,74.80
2019-04-14T22:24:26.264Z,74.70
2019-04-14T22:26:56.885Z,74.70
2019-04-14T22:29:27.209Z,74.90
2019-04-14T22:31:57.430Z,74.80
2019-04-14T22:34:27.655Z,74.80
2019-04-14T22:36:57.698Z,75.10
2019-04-14T22:39:28.001Z,74.80
2019-04-14T22:42:00.888Z,74.90
2019-04-14T22:44:30.927Z,75.00
2019-04-14T22:47:01.127Z,74.80
2019-04-14T22:49:31.233Z,75.30
2019-04-14T22:52:01.615Z,74.90
2019-04-14T22:54:31.882Z,75.00
2019-04-14T22:57:01.902Z,75.10
2019-04-14T22:59:31.848Z,75.00
2019-04-14T23:02:06.537Z,75.10
2019-04-14T23:04:41.147Z,75.40
2019-04-14T23:07:25.008Z,74.90
2019-04-14T23:09:59.759Z,75.20
2019-04-14T23:12:31.696Z,75.10
2019-04-14T23:15:06.218Z,75.10
2019-04-14T23:17:40.637Z,75.30
2019-04-14T23:20:16.009Z,75.10
2019-04-14T23:23:00.025Z,75.10
2019-04-14T23:25:30.143Z,75.20
2019-04-14T23:28:00.267Z,75.10
2019-04-14T23:30:30.586Z,75.00
2019-04-14T23:33:00.664Z,75.50
2019-04-14T23:35:30.926Z,75.40
2019-04-14T23:38:01.032Z,74.90
2019-04-14T23:40:31.164Z,75.30
2019-04-14T23:43:01.387Z,75.30
2019-04-14T23:45:31.715Z,75.10
2019-04-14T23:48:02.045Z,75.30
2019-04-14T23:50:32.256Z,75.10
2019-04-14T23:53:02.387Z,75.40
2019-04-14T23:55:32.390Z,75.10
2019-04-14T23:58:02.520Z,75.50
